sensor_id;sensor_type;location;lat;lon;timestamp;P1;durP1;ratioP1;P2;durP2;ratioP2
15256;SDS011;7731;50.720;6.912;2022-10-16T00:01:25;2.15;;;1.95;;
15256;SDS011;7731;50.720;6.912;2022-10-16T00:03:59;4.15;;;1.60;;
15256;SDS011;7731;50.720;6.912;2022-10-16T00:06:33;2.63;;;1.90;;
15256;SDS011;7731;50.720;6.912;2022-10-16T00:09:03;1.85;;;1.60;;
15256;SDS011;7731;50.720;6.912;2022-10-16T00:11:35;2.55;;;1.65;;
15256;SDS011;7731;50.720;6.912;2022-10-16T00:14:10;3.00;;;1.70;;
15256;SDS011;7731;50.720;6.912;2022-10-16T00:16:43;2.92;;;1.83;;
15256;SDS011;7731;50.720;6.912;2022-10-16T00:19:24;2.03;;;1.65;;
15256;SDS011;7731;50.720;6.912;2022-10-16T00:21:56;2.38;;;1.35;;
15256;SDS011;7731;50.720;6.912;2022-10-16T00:24:26;1.80;;;1.70;;
15256;SDS011;7731;50.720;6.912;2022-10-16T00:26:57;2.03;;;1.52;;
15256;SDS011;7731;50.720;6.912;2022-10-16T00:29:27;3.20;;;1.83;;
15256;SDS011;7731;50.720;6.912;2022-10-16T00:31:57;3.60;;;1.60;;
15256;SDS011;7731;50.720;6.912;2022-10-16T00:34:27;2.08;;;1.70;;
15256;SDS011;7731;50.720;6.912;2022-10-16T00:37:00;2.35;;;1.50;;
15256;SDS011;7731;50.720;6.912;2022-10-16T00:39:35;3.67;;;1.70;;
15256;SDS011;7731;50.720;6.912;2022-10-16T00:42:05;2.17;;;1.83;;
15256;SDS011;7731;50.720;6.912;2022-10-16T00:44:46;3.08;;;2.13;;
15256;SDS011;7731;50.720;6.912;2022-10-16T00:47:21;2.28;;;1.70;;
15256;SDS011;7731;50.720;6.912;2022-10-16T00:50:00;1.88;;;1.60;;
15256;SDS011;7731;50.720;6.912;2022-10-16T00:52:44;3.00;;;1.70;;
15256;SDS011;7731;50.720;6.912;2022-10-16T00:55:19;1.80;;;1.60;;
15256;SDS011;7731;50.720;6.912;2022-10-16T00:57:52;4.47;;;1.55;;
15256;SDS011;7731;50.720;6.912;2022-10-16T01:00:30;2.00;;;1.40;;
15256;SDS011;7731;50.720;6.912;2022-10-16T01:03:01;5.38;;;1.40;;
15256;SDS011;7731;50.720;6.912;2022-10-16T01:05:59;1.38;;;1.27;;
15256;SDS011;7731;50.720;6.912;2022-10-16T01:09:14;1.33;;;1.05;;
15256;SDS011;7731;50.720;6.912;2022-10-16T01:11:57;1.73;;;1.38;;
15256;SDS011;7731;50.720;6.912;2022-10-16T01:14:46;1.40;;;1.30;;
15256;SDS011;7731;50.720;6.912;2022-10-16T01:17:28;2.22;;;1.38;;
15256;SDS011;7731;50.720;6.912;2022-10-16T01:20:11;1.40;;;1.20;;
15256;SDS011;7731;50.720;6.912;2022-10-16T01:22:59;3.55;;;1.20;;
15256;SDS011;7731;50.720;6.912;2022-10-16T01:29:09;3.85;;;1.20;;
15256;SDS011;7731;50.720;6.912;2022-10-16T01:31:49;2.63;;;1.38;;
15256;SDS011;7731;50.720;6.912;2022-10-16T01:34:36;1.65;;;1.55;;
15256;SDS011;7731;50.720;6.912;2022-10-16T01:37:15;1.98;;;1.30;;
15256;SDS011;7731;50.720;6.912;2022-10-16T01:39:58;1.50;;;1.40;;
15256;SDS011;7731;50.720;6.912;2022-10-16T01:42:35;2.95;;;1.42;;
15256;SDS011;7731;50.720;6.912;2022-10-16T01:45:14;3.47;;;1.40;;
15256;SDS011;7731;50.720;6.912;2022-10-16T01:47:51;5.75;;;1.45;;
15256;SDS011;7731;50.720;6.912;2022-10-16T01:50:37;3.00;;;1.10;;
15256;SDS011;7731;50.720;6.912;2022-10-16T01:53:13;1.45;;;1.20;;
15256;SDS011;7731;50.720;6.912;2022-10-16T01:55:46;1.85;;;1.20;;
15256;SDS011;7731;50.720;6.912;2022-10-16T01:58:19;0.95;;;0.93;;
15256;SDS011;7731;50.720;6.912;2022-10-16T02:00:54;2.58;;;0.95;;
15256;SDS011;7731;50.720;6.912;2022-10-16T02:03:24;2.30;;;1.00;;
15256;SDS011;7731;50.720;6.912;2022-10-16T02:05:58;1.10;;;1.00;;
15256;SDS011;7731;50.720;6.912;2022-10-16T02:08:29;3.28;;;0.98;;
15256;SDS011;7731;50.720;6.912;2022-10-16T02:11:04;2.65;;;1.02;;
15256;SDS011;7731;50.720;6.912;2022-10-16T02:13:36;0.88;;;0.80;;
15256;SDS011;7731;50.720;6.912;2022-10-16T02:16:16;0.90;;;0.80;;
15256;SDS011;7731;50.720;6.912;2022-10-16T02:18:55;2.85;;;0.75;;
15256;SDS011;7731;50.720;6.912;2022-10-16T02:21:29;4.40;;;1.00;;
15256;SDS011;7731;50.720;6.912;2022-10-16T02:24:11;2.20;;;1.00;;
15256;SDS011;7731;50.720;6.912;2022-10-16T02:26:52;3.33;;;1.30;;
15256;SDS011;7731;50.720;6.912;2022-10-16T02:29:30;2.35;;;1.08;;
15256;SDS011;7731;50.720;6.912;2022-10-16T02:32:14;1.00;;;0.90;;
15256;SDS011;7731;50.720;6.912;2022-10-16T02:34:51;1.10;;;1.00;;
15256;SDS011;7731;50.720;6.912;2022-10-16T02:37:22;1.25;;;1.00;;
15256;SDS011;7731;50.720;6.912;2022-10-16T02:39:53;1.20;;;1.10;;
15256;SDS011;7731;50.720;6.912;2022-10-16T02:42:33;1.30;;;1.20;;
15256;SDS011;7731;50.720;6.912;2022-10-16T02:45:06;4.35;;;1.30;;
15256;SDS011;7731;50.720;6.912;2022-10-16T02:47:42;1.67;;;0.80;;
15256;SDS011;7731;50.720;6.912;2022-10-16T02:50:12;1.00;;;0.80;;
15256;SDS011;7731;50.720;6.912;2022-10-16T02:52:42;4.32;;;1.13;;
15256;SDS011;7731;50.720;6.912;2022-10-16T02:55:13;2.97;;;0.98;;
15256;SDS011;7731;50.720;6.912;2022-10-16T02:57:43;1.50;;;1.15;;
15256;SDS011;7731;50.720;6.912;2022-10-16T03:00:14;2.47;;;1.20;;
15256;SDS011;7731;50.720;6.912;2022-10-16T03:02:48;1.25;;;1.10;;
15256;SDS011;7731;50.720;6.912;2022-10-16T03:05:21;3.25;;;1.10;;
15256;SDS011;7731;50.720;6.912;2022-10-16T03:08:00;1.20;;;0.90;;
15256;SDS011;7731;50.720;6.912;2022-10-16T03:10:38;1.35;;;0.98;;
15256;SDS011;7731;50.720;6.912;2022-10-16T03:13:09;2.60;;;0.95;;
15256;SDS011;7731;50.720;6.912;2022-10-16T03:15:39;2.55;;;0.95;;
15256;SDS011;7731;50.720;6.912;2022-10-16T03:18:19;3.05;;;0.98;;
15256;SDS011;7731;50.720;6.912;2022-10-16T03:20:49;3.25;;;1.00;;
15256;SDS011;7731;50.720;6.912;2022-10-16T03:23:19;1.77;;;0.90;;
15256;SDS011;7731;50.720;6.912;2022-10-16T03:25:52;1.23;;;0.93;;
15256;SDS011;7731;50.720;6.912;2022-10-16T03:28:25;1.63;;;1.05;;
15256;SDS011;7731;50.720;6.912;2022-10-16T03:30:55;4.32;;;1.15;;
15256;SDS011;7731;50.720;6.912;2022-10-16T03:33:28;2.08;;;1.17;;
15256;SDS011;7731;50.720;6.912;2022-10-16T03:35:58;0.93;;;0.90;;
15256;SDS011;7731;50.720;6.912;2022-10-16T03:38:30;2.75;;;1.00;;
15256;SDS011;7731;50.720;6.912;2022-10-16T03:41:01;2.38;;;1.20;;
15256;SDS011;7731;50.720;6.912;2022-10-16T03:43:31;2.78;;;1.02;;
15256;SDS011;7731;50.720;6.912;2022-10-16T03:46:07;3.60;;;1.08;;
15256;SDS011;7731;50.720;6.912;2022-10-16T03:48:40;1.15;;;1.05;;
15256;SDS011;7731;50.720;6.912;2022-10-16T03:51:12;1.55;;;0.98;;
15256;SDS011;7731;50.720;6.912;2022-10-16T03:53:45;1.10;;;1.00;;
15256;SDS011;7731;50.720;6.912;2022-10-16T03:56:16;1.42;;;0.95;;
15256;SDS011;7731;50.720;6.912;2022-10-16T03:58:46;2.13;;;1.05;;
15256;SDS011;7731;50.720;6.912;2022-10-16T04:01:16;1.60;;;0.88;;
15256;SDS011;7731;50.720;6.912;2022-10-16T04:03:49;1.88;;;1.00;;
15256;SDS011;7731;50.720;6.912;2022-10-16T04:06:19;1.80;;;1.20;;
15256;SDS011;7731;50.720;6.912;2022-10-16T04:08:49;1.58;;;1.00;;
15256;SDS011;7731;50.720;6.912;2022-10-16T04:11:22;1.58;;;0.98;;
15256;SDS011;7731;50.720;6.912;2022-10-16T04:13:53;1.35;;;0.80;;
15256;SDS011;7731;50.720;6.912;2022-10-16T04:16:23;2.63;;;1.40;;
15256;SDS011;7731;50.720;6.912;2022-10-16T04:18:56;1.10;;;1.00;;
15256;SDS011;7731;50.720;6.912;2022-10-16T04:21:26;1.30;;;1.00;;
15256;SDS011;7731;50.720;6.912;2022-10-16T04:23:59;1.92;;;1.20;;
15256;SDS011;7731;50.720;6.912;2022-10-16T04:26:29;1.90;;;1.17;;
15256;SDS011;7731;50.720;6.912;2022-10-16T04:29:03;1.42;;;1.00;;
15256;SDS011;7731;50.720;6.912;2022-10-16T04:31:46;1.58;;;1.00;;
15256;SDS011;7731;50.720;6.912;2022-10-16T04:34:19;1.50;;;1.20;;
15256;SDS011;7731;50.720;6.912;2022-10-16T04:36:49;1.02;;;1.00;;
15256;SDS011;7731;50.720;6.912;2022-10-16T04:39:21;1.50;;;1.15;;
15256;SDS011;7731;50.720;6.912;2022-10-16T04:41:55;3.63;;;1.40;;
15256;SDS011;7731;50.720;6.912;2022-10-16T04:44:27;1.30;;;1.20;;
15256;SDS011;7731;50.720;6.912;2022-10-16T04:46:58;1.50;;;1.30;;
15256;SDS011;7731;50.720;6.912;2022-10-16T04:49:33;2.03;;;1.33;;
15256;SDS011;7731;50.720;6.912;2022-10-16T04:52:04;1.30;;;1.20;;
15256;SDS011;7731;50.720;6.912;2022-10-16T04:54:35;2.20;;;1.50;;
15256;SDS011;7731;50.720;6.912;2022-10-16T04:57:08;1.50;;;1.30;;
15256;SDS011;7731;50.720;6.912;2022-10-16T04:59:38;2.15;;;1.30;;
15256;SDS011;7731;50.720;6.912;2022-10-16T05:02:11;3.00;;;1.50;;
15256;SDS011;7731;50.720;6.912;2022-10-16T05:04:45;5.15;;;2.88;;
15256;SDS011;7731;50.720;6.912;2022-10-16T05:07:16;5.47;;;1.65;;
15256;SDS011;7731;50.720;6.912;2022-10-16T05:09:46;1.77;;;1.52;;
15256;SDS011;7731;50.720;6.912;2022-10-16T05:12:16;2.78;;;1.30;;
15256;SDS011;7731;50.720;6.912;2022-10-16T05:14:46;2.22;;;1.70;;
15256;SDS011;7731;50.720;6.912;2022-10-16T05:17:21;1.77;;;1.40;;
15256;SDS011;7731;50.720;6.912;2022-10-16T05:19:54;2.85;;;1.75;;
15256;SDS011;7731;50.720;6.912;2022-10-16T05:22:24;2.85;;;1.35;;
15256;SDS011;7731;50.720;6.912;2022-10-16T05:24:57;1.75;;;1.65;;
15256;SDS011;7731;50.720;6.912;2022-10-16T05:27:27;2.58;;;1.45;;
15256;SDS011;7731;50.720;6.912;2022-10-16T05:30:00;2.65;;;1.60;;
15256;SDS011;7731;50.720;6.912;2022-10-16T05:32:35;3.15;;;1.63;;
15256;SDS011;7731;50.720;6.912;2022-10-16T05:35:10;4.88;;;1.58;;
15256;SDS011;7731;50.720;6.912;2022-10-16T05:37:40;1.90;;;1.70;;
15256;SDS011;7731;50.720;6.912;2022-10-16T05:40:19;1.85;;;1.60;;
15256;SDS011;7731;50.720;6.912;2022-10-16T05:42:54;2.65;;;1.40;;
15256;SDS011;7731;50.720;6.912;2022-10-16T05:45:24;4.95;;;1.83;;
15256;SDS011;7731;50.720;6.912;2022-10-16T05:47:55;2.70;;;1.60;;
15256;SDS011;7731;50.720;6.912;2022-10-16T05:50:34;1.88;;;1.75;;
15256;SDS011;7731;50.720;6.912;2022-10-16T05:53:11;2.03;;;1.63;;
15256;SDS011;7731;50.720;6.912;2022-10-16T05:55:41;1.65;;;1.55;;
15256;SDS011;7731;50.720;6.912;2022-10-16T05:58:11;4.00;;;1.73;;
15256;SDS011;7731;50.720;6.912;2022-10-16T06:00:42;1.50;;;1.40;;
15256;SDS011;7731;50.720;6.912;2022-10-16T06:03:12;1.50;;;1.40;;
15256;SDS011;7731;50.720;6.912;2022-10-16T06:05:51;2.30;;;1.65;;
15256;SDS011;7731;50.720;6.912;2022-10-16T06:08:22;2.10;;;1.33;;
15256;SDS011;7731;50.720;6.912;2022-10-16T06:11:00;2.75;;;1.98;;
15256;SDS011;7731;50.720;6.912;2022-10-16T06:13:34;1.88;;;1.60;;
15256;SDS011;7731;50.720;6.912;2022-10-16T06:16:05;2.10;;;1.60;;
15256;SDS011;7731;50.720;6.912;2022-10-16T06:18:36;2.65;;;2.33;;
15256;SDS011;7731;50.720;6.912;2022-10-16T06:21:09;2.72;;;1.70;;
15256;SDS011;7731;50.720;6.912;2022-10-16T06:23:43;2.67;;;1.77;;
15256;SDS011;7731;50.720;6.912;2022-10-16T06:26:15;3.83;;;1.50;;
15256;SDS011;7731;50.720;6.912;2022-10-16T06:28:50;1.80;;;1.70;;
15256;SDS011;7731;50.720;6.912;2022-10-16T06:31:23;4.05;;;1.60;;
15256;SDS011;7731;50.720;6.912;2022-10-16T06:33:57;2.00;;;1.73;;
15256;SDS011;7731;50.720;6.912;2022-10-16T06:36:34;2.05;;;1.92;;
15256;SDS011;7731;50.720;6.912;2022-10-16T06:39:04;2.40;;;2.20;;
15256;SDS011;7731;50.720;6.912;2022-10-16T06:41:35;2.17;;;2.00;;
15256;SDS011;7731;50.720;6.912;2022-10-16T06:44:06;3.80;;;2.08;;
15256;SDS011;7731;50.720;6.912;2022-10-16T06:46:39;5.13;;;3.58;;
15256;SDS011;7731;50.720;6.912;2022-10-16T06:49:20;2.00;;;1.90;;
15256;SDS011;7731;50.720;6.912;2022-10-16T06:51:53;2.90;;;1.90;;
15256;SDS011;7731;50.720;6.912;2022-10-16T06:54:23;2.05;;;1.95;;
15256;SDS011;7731;50.720;6.912;2022-10-16T06:56:54;2.67;;;2.20;;
15256;SDS011;7731;50.720;6.912;2022-10-16T06:59:26;2.38;;;2.17;;
15256;SDS011;7731;50.720;6.912;2022-10-16T07:01:56;2.50;;;2.30;;
15256;SDS011;7731;50.720;6.912;2022-10-16T07:04:26;4.55;;;3.75;;
15256;SDS011;7731;50.720;6.912;2022-10-16T07:06:59;3.53;;;2.80;;
15256;SDS011;7731;50.720;6.912;2022-10-16T07:09:34;3.45;;;2.55;;
15256;SDS011;7731;50.720;6.912;2022-10-16T07:12:06;2.83;;;2.35;;
15256;SDS011;7731;50.720;6.912;2022-10-16T07:14:37;3.00;;;2.42;;
15256;SDS011;7731;50.720;6.912;2022-10-16T07:17:07;3.22;;;2.90;;
15256;SDS011;7731;50.720;6.912;2022-10-16T07:19:37;4.38;;;3.50;;
15256;SDS011;7731;50.720;6.912;2022-10-16T07:22:10;4.13;;;3.35;;
15256;SDS011;7731;50.720;6.912;2022-10-16T07:24:40;3.15;;;2.83;;
15256;SDS011;7731;50.720;6.912;2022-10-16T07:27:17;2.92;;;2.55;;
15256;SDS011;7731;50.720;6.912;2022-10-16T07:29:48;5.13;;;2.40;;
15256;SDS011;7731;50.720;6.912;2022-10-16T07:32:21;2.90;;;2.60;;
15256;SDS011;7731;50.720;6.912;2022-10-16T07:35:01;2.80;;;2.60;;
15256;SDS011;7731;50.720;6.912;2022-10-16T07:37:36;2.80;;;2.00;;
15256;SDS011;7731;50.720;6.912;2022-10-16T07:40:14;3.95;;;2.38;;
15256;SDS011;7731;50.720;6.912;2022-10-16T07:42:44;6.38;;;2.00;;
15256;SDS011;7731;50.720;6.912;2022-10-16T07:45:17;2.03;;;1.80;;
15256;SDS011;7731;50.720;6.912;2022-10-16T07:47:47;1.88;;;1.48;;
15256;SDS011;7731;50.720;6.912;2022-10-16T07:50:20;2.03;;;1.42;;
15256;SDS011;7731;50.720;6.912;2022-10-16T07:52:53;1.75;;;1.48;;
15256;SDS011;7731;50.720;6.912;2022-10-16T07:55:23;2.72;;;1.30;;
15256;SDS011;7731;50.720;6.912;2022-10-16T07:57:54;1.42;;;1.30;;
15256;SDS011;7731;50.720;6.912;2022-10-16T08:00:24;1.48;;;1.02;;
15256;SDS011;7731;50.720;6.912;2022-10-16T08:02:54;1.98;;;1.40;;
15256;SDS011;7731;50.720;6.912;2022-10-16T08:05:28;3.17;;;1.60;;
15256;SDS011;7731;50.720;6.912;2022-10-16T08:08:04;1.90;;;1.58;;
15256;SDS011;7731;50.720;6.912;2022-10-16T08:10:34;2.13;;;1.60;;
15256;SDS011;7731;50.720;6.912;2022-10-16T08:13:05;2.25;;;2.03;;
15256;SDS011;7731;50.720;6.912;2022-10-16T08:15:47;3.25;;;2.13;;
15256;SDS011;7731;50.720;6.912;2022-10-16T08:18:17;3.90;;;2.33;;
15256;SDS011;7731;50.720;6.912;2022-10-16T08:20:56;3.83;;;2.20;;
15256;SDS011;7731;50.720;6.912;2022-10-16T08:23:33;3.08;;;2.10;;
15256;SDS011;7731;50.720;6.912;2022-10-16T08:26:04;2.55;;;1.23;;
15256;SDS011;7731;50.720;6.912;2022-10-16T08:28:37;1.70;;;1.20;;
15256;SDS011;7731;50.720;6.912;2022-10-16T08:31:08;1.95;;;1.23;;
15256;SDS011;7731;50.720;6.912;2022-10-16T08:33:40;2.08;;;1.10;;
15256;SDS011;7731;50.720;6.912;2022-10-16T08:36:16;1.50;;;0.85;;
15256;SDS011;7731;50.720;6.912;2022-10-16T08:38:54;1.60;;;0.77;;
15256;SDS011;7731;50.720;6.912;2022-10-16T08:41:34;1.75;;;0.80;;
15256;SDS011;7731;50.720;6.912;2022-10-16T08:47:49;1.67;;;0.70;;
15256;SDS011;7731;50.720;6.912;2022-10-16T08:50:36;2.47;;;0.90;;
15256;SDS011;7731;50.720;6.912;2022-10-16T08:53:10;1.73;;;0.90;;
15256;SDS011;7731;50.720;6.912;2022-10-16T08:55:52;1.35;;;1.08;;
15256;SDS011;7731;50.720;6.912;2022-10-16T08:58:26;1.00;;;0.80;;
15256;SDS011;7731;50.720;6.912;2022-10-16T09:01:00;2.60;;;0.95;;
15256;SDS011;7731;50.720;6.912;2022-10-16T09:03:38;1.75;;;0.90;;
15256;SDS011;7731;50.720;6.912;2022-10-16T09:06:32;1.05;;;0.95;;
15256;SDS011;7731;50.720;6.912;2022-10-16T09:09:21;2.80;;;0.80;;
15256;SDS011;7731;50.720;6.912;2022-10-16T09:12:25;3.78;;;1.10;;
15256;SDS011;7731;50.720;6.912;2022-10-16T09:15:07;1.52;;;0.73;;
15256;SDS011;7731;50.720;6.912;2022-10-16T09:17:55;1.35;;;0.70;;
15256;SDS011;7731;50.720;6.912;2022-10-16T09:20:49;1.52;;;0.65;;
15256;SDS011;7731;50.720;6.912;2022-10-16T09:23:32;1.35;;;0.73;;
15256;SDS011;7731;50.720;6.912;2022-10-16T09:26:09;1.10;;;0.70;;
15256;SDS011;7731;50.720;6.912;2022-10-16T09:28:45;1.50;;;0.40;;
15256;SDS011;7731;50.720;6.912;2022-10-16T09:31:17;2.58;;;0.80;;
15256;SDS011;7731;50.720;6.912;2022-10-16T09:33:53;1.15;;;0.60;;
15256;SDS011;7731;50.720;6.912;2022-10-16T09:36:36;1.33;;;0.60;;
15256;SDS011;7731;50.720;6.912;2022-10-16T09:39:13;2.00;;;0.60;;
15256;SDS011;7731;50.720;6.912;2022-10-16T09:41:44;1.13;;;0.70;;
15256;SDS011;7731;50.720;6.912;2022-10-16T09:44:19;0.90;;;0.57;;
15256;SDS011;7731;50.720;6.912;2022-10-16T09:47:05;1.15;;;0.70;;
15256;SDS011;7731;50.720;6.912;2022-10-16T09:49:56;0.98;;;0.68;;
15256;SDS011;7731;50.720;6.912;2022-10-16T09:52:30;0.55;;;0.47;;
15256;SDS011;7731;50.720;6.912;2022-10-16T09:55:12;1.48;;;0.80;;
15256;SDS011;7731;50.720;6.912;2022-10-16T09:57:51;4.88;;;0.77;;
15256;SDS011;7731;50.720;6.912;2022-10-16T10:00:27;1.30;;;0.60;;
15256;SDS011;7731;50.720;6.912;2022-10-16T10:02:58;2.75;;;0.98;;
15256;SDS011;7731;50.720;6.912;2022-10-16T10:05:29;1.20;;;0.60;;
15256;SDS011;7731;50.720;6.912;2022-10-16T10:08:00;2.38;;;0.70;;
15256;SDS011;7731;50.720;6.912;2022-10-16T10:10:36;2.55;;;0.70;;
15256;SDS011;7731;50.720;6.912;2022-10-16T10:13:16;1.73;;;0.60;;
15256;SDS011;7731;50.720;6.912;2022-10-16T10:15:56;1.50;;;0.60;;
15256;SDS011;7731;50.720;6.912;2022-10-16T10:18:26;0.85;;;0.60;;
15256;SDS011;7731;50.720;6.912;2022-10-16T10:20:58;1.95;;;0.63;;
15256;SDS011;7731;50.720;6.912;2022-10-16T10:23:32;3.13;;;1.77;;
15256;SDS011;7731;50.720;6.912;2022-10-16T10:26:03;0.73;;;0.40;;
15256;SDS011;7731;50.720;6.912;2022-10-16T10:28:47;1.25;;;0.52;;
15256;SDS011;7731;50.720;6.912;2022-10-16T10:31:35;2.65;;;0.70;;
15256;SDS011;7731;50.720;6.912;2022-10-16T10:34:24;0.82;;;0.50;;
15256;SDS011;7731;50.720;6.912;2022-10-16T10:37:18;1.38;;;0.55;;
15256;SDS011;7731;50.720;6.912;2022-10-16T10:40:23;1.48;;;0.55;;
15256;SDS011;7731;50.720;6.912;2022-10-16T10:43:11;1.35;;;0.50;;
15256;SDS011;7731;50.720;6.912;2022-10-16T10:46:00;1.50;;;0.50;;
15256;SDS011;7731;50.720;6.912;2022-10-16T10:48:51;1.60;;;0.60;;
15256;SDS011;7731;50.720;6.912;2022-10-16T10:51:49;0.93;;;0.50;;
15256;SDS011;7731;50.720;6.912;2022-10-16T10:54:41;1.85;;;0.60;;
15256;SDS011;7731;50.720;6.912;2022-10-16T10:57:25;0.70;;;0.57;;
15256;SDS011;7731;50.720;6.912;2022-10-16T11:00:21;1.65;;;0.65;;
15256;SDS011;7731;50.720;6.912;2022-10-16T11:03:08;1.42;;;0.60;;
15256;SDS011;7731;50.720;6.912;2022-10-16T11:05:56;0.73;;;0.60;;
15256;SDS011;7731;50.720;6.912;2022-10-16T11:08:32;1.33;;;0.60;;
15256;SDS011;7731;50.720;6.912;2022-10-16T11:11:11;1.13;;;0.70;;
15256;SDS011;7731;50.720;6.912;2022-10-16T11:13:59;0.85;;;0.63;;
15256;SDS011;7731;50.720;6.912;2022-10-16T11:16:56;0.63;;;0.40;;
15256;SDS011;7731;50.720;6.912;2022-10-16T11:19:37;2.25;;;0.63;;
15256;SDS011;7731;50.720;6.912;2022-10-16T11:22:19;2.40;;;0.80;;
15256;SDS011;7731;50.720;6.912;2022-10-16T11:24:58;0.80;;;0.60;;
15256;SDS011;7731;50.720;6.912;2022-10-16T11:27:38;1.95;;;0.75;;
15256;SDS011;7731;50.720;6.912;2022-10-16T11:30:18;2.03;;;0.50;;
15256;SDS011;7731;50.720;6.912;2022-10-16T11:33:04;1.00;;;0.57;;
15256;SDS011;7731;50.720;6.912;2022-10-16T11:36:00;1.40;;;0.80;;
15256;SDS011;7731;50.720;6.912;2022-10-16T11:38:44;1.60;;;0.70;;
15256;SDS011;7731;50.720;6.912;2022-10-16T11:41:27;0.63;;;0.55;;
15256;SDS011;7731;50.720;6.912;2022-10-16T11:44:09;1.00;;;0.70;;
15256;SDS011;7731;50.720;6.912;2022-10-16T11:46:58;1.85;;;0.80;;
15256;SDS011;7731;50.720;6.912;2022-10-16T11:50:02;0.80;;;0.60;;
15256;SDS011;7731;50.720;6.912;2022-10-16T11:52:51;1.13;;;0.50;;
15256;SDS011;7731;50.720;6.912;2022-10-16T11:55:32;0.98;;;0.60;;
15256;SDS011;7731;50.720;6.912;2022-10-16T11:58:14;1.25;;;0.60;;
15256;SDS011;7731;50.720;6.912;2022-10-16T12:00:56;1.52;;;0.70;;
15256;SDS011;7731;50.720;6.912;2022-10-16T12:03:42;1.42;;;0.73;;
15256;SDS011;7731;50.720;6.912;2022-10-16T12:06:22;1.30;;;0.68;;
15256;SDS011;7731;50.720;6.912;2022-10-16T12:09:00;1.05;;;0.57;;
15256;SDS011;7731;50.720;6.912;2022-10-16T12:11:38;1.55;;;0.55;;
15256;SDS011;7731;50.720;6.912;2022-10-16T12:17:27;0.88;;;0.50;;
15256;SDS011;7731;50.720;6.912;2022-10-16T12:23:04;1.20;;;0.60;;
15256;SDS011;7731;50.720;6.912;2022-10-16T12:25:36;0.68;;;0.50;;
15256;SDS011;7731;50.720;6.912;2022-10-16T12:28:21;0.80;;;0.60;;
15256;SDS011;7731;50.720;6.912;2022-10-16T12:31:03;0.98;;;0.85;;
15256;SDS011;7731;50.720;6.912;2022-10-16T12:33:56;2.03;;;0.52;;
15256;SDS011;7731;50.720;6.912;2022-10-16T12:36:33;2.17;;;0.60;;
15256;SDS011;7731;50.720;6.912;2022-10-16T12:39:16;0.77;;;0.60;;
15256;SDS011;7731;50.720;6.912;2022-10-16T12:48:02;1.95;;;0.45;;
15256;SDS011;7731;50.720;6.912;2022-10-16T12:51:11;1.02;;;0.57;;
15256;SDS011;7731;50.720;6.912;2022-10-16T12:53:58;1.27;;;0.68;;
15256;SDS011;7731;50.720;6.912;2022-10-16T12:56:33;1.38;;;0.68;;
15256;SDS011;7731;50.720;6.912;2022-10-16T12:59:18;0.70;;;0.50;;
15256;SDS011;7731;50.720;6.912;2022-10-16T13:02:16;0.95;;;0.50;;
15256;SDS011;7731;50.720;6.912;2022-10-16T13:05:23;0.70;;;0.63;;
15256;SDS011;7731;50.720;6.912;2022-10-16T13:08:18;0.63;;;0.60;;
15256;SDS011;7731;50.720;6.912;2022-10-16T13:11:08;0.75;;;0.50;;
15256;SDS011;7731;50.720;6.912;2022-10-16T13:13:59;0.88;;;0.60;;
15256;SDS011;7731;50.720;6.912;2022-10-16T13:16:51;1.40;;;0.60;;
15256;SDS011;7731;50.720;6.912;2022-10-16T13:19:39;0.73;;;0.45;;
15256;SDS011;7731;50.720;6.912;2022-10-16T13:22:23;0.95;;;0.40;;
15256;SDS011;7731;50.720;6.912;2022-10-16T13:25:05;0.52;;;0.50;;
15256;SDS011;7731;50.720;6.912;2022-10-16T13:27:54;2.05;;;0.40;;
15256;SDS011;7731;50.720;6.912;2022-10-16T13:30:40;0.98;;;0.47;;
15256;SDS011;7731;50.720;6.912;2022-10-16T13:33:14;0.75;;;0.50;;
15256;SDS011;7731;50.720;6.912;2022-10-16T13:35:57;0.68;;;0.50;;
15256;SDS011;7731;50.720;6.912;2022-10-16T13:38:30;0.90;;;0.50;;
15256;SDS011;7731;50.720;6.912;2022-10-16T13:41:06;1.00;;;0.40;;
15256;SDS011;7731;50.720;6.912;2022-10-16T13:43:46;0.70;;;0.40;;
15256;SDS011;7731;50.720;6.912;2022-10-16T13:46:23;1.60;;;0.52;;
15256;SDS011;7731;50.720;6.912;2022-10-16T13:48:59;1.63;;;0.60;;
15256;SDS011;7731;50.720;6.912;2022-10-16T13:51:36;1.85;;;0.63;;
15256;SDS011;7731;50.720;6.912;2022-10-16T13:54:09;0.47;;;0.40;;
15256;SDS011;7731;50.720;6.912;2022-10-16T13:56:45;0.57;;;0.55;;
15256;SDS011;7731;50.720;6.912;2022-10-16T13:59:37;2.88;;;0.70;;
15256;SDS011;7731;50.720;6.912;2022-10-16T14:02:15;1.38;;;0.60;;
15256;SDS011;7731;50.720;6.912;2022-10-16T14:04:58;1.75;;;0.50;;
15256;SDS011;7731;50.720;6.912;2022-10-16T14:07:31;0.68;;;0.50;;
15256;SDS011;7731;50.720;6.912;2022-10-16T14:10:04;0.80;;;0.60;;
15256;SDS011;7731;50.720;6.912;2022-10-16T14:12:56;1.30;;;0.47;;
15256;SDS011;7731;50.720;6.912;2022-10-16T14:15:29;0.50;;;0.50;;
15256;SDS011;7731;50.720;6.912;2022-10-16T14:18:03;0.57;;;0.50;;
15256;SDS011;7731;50.720;6.912;2022-10-16T14:20:34;1.13;;;0.63;;
15256;SDS011;7731;50.720;6.912;2022-10-16T14:23:20;0.40;;;0.40;;
15256;SDS011;7731;50.720;6.912;2022-10-16T14:26:05;1.80;;;0.57;;
15256;SDS011;7731;50.720;6.912;2022-10-16T14:28:44;0.95;;;0.50;;
15256;SDS011;7731;50.720;6.912;2022-10-16T14:31:23;0.82;;;0.70;;
15256;SDS011;7731;50.720;6.912;2022-10-16T14:33:57;1.40;;;0.68;;
15256;SDS011;7731;50.720;6.912;2022-10-16T14:36:28;0.70;;;0.50;;
15256;SDS011;7731;50.720;6.912;2022-10-16T14:39:05;0.50;;;0.50;;
15256;SDS011;7731;50.720;6.912;2022-10-16T14:41:47;2.47;;;0.50;;
15256;SDS011;7731;50.720;6.912;2022-10-16T14:44:27;1.05;;;0.60;;
15256;SDS011;7731;50.720;6.912;2022-10-16T14:47:07;0.80;;;0.52;;
15256;SDS011;7731;50.720;6.912;2022-10-16T14:49:48;2.33;;;0.80;;
15256;SDS011;7731;50.720;6.912;2022-10-16T14:52:22;2.15;;;0.60;;
15256;SDS011;7731;50.720;6.912;2022-10-16T14:55:05;0.80;;;0.60;;
15256;SDS011;7731;50.720;6.912;2022-10-16T14:57:42;1.42;;;0.65;;
15256;SDS011;7731;50.720;6.912;2022-10-16T15:00:16;1.52;;;0.70;;
15256;SDS011;7731;50.720;6.912;2022-10-16T15:02:49;0.80;;;0.65;;
15256;SDS011;7731;50.720;6.912;2022-10-16T15:05:24;0.63;;;0.63;;
15256;SDS011;7731;50.720;6.912;2022-10-16T15:07:58;0.82;;;0.60;;
15256;SDS011;7731;50.720;6.912;2022-10-16T15:10:31;0.70;;;0.70;;
15256;SDS011;7731;50.720;6.912;2022-10-16T15:13:09;1.67;;;0.73;;
15256;SDS011;7731;50.720;6.912;2022-10-16T15:15:42;1.40;;;1.20;;
15256;SDS011;7731;50.720;6.912;2022-10-16T15:18:15;0.85;;;0.70;;
15256;SDS011;7731;50.720;6.912;2022-10-16T15:20:47;0.80;;;0.73;;
15256;SDS011;7731;50.720;6.912;2022-10-16T15:23:21;1.25;;;0.80;;
15256;SDS011;7731;50.720;6.912;2022-10-16T15:26:14;2.72;;;0.93;;
15256;SDS011;7731;50.720;6.912;2022-10-16T15:28:45;0.82;;;0.70;;
15256;SDS011;7731;50.720;6.912;2022-10-16T15:31:15;1.83;;;0.90;;
15256;SDS011;7731;50.720;6.912;2022-10-16T15:33:45;1.60;;;0.75;;
15256;SDS011;7731;50.720;6.912;2022-10-16T15:36:32;1.98;;;1.00;;
15256;SDS011;7731;50.720;6.912;2022-10-16T15:39:05;0.73;;;0.70;;
15256;SDS011;7731;50.720;6.912;2022-10-16T15:41:45;1.20;;;0.70;;
15256;SDS011;7731;50.720;6.912;2022-10-16T15:44:18;1.83;;;1.08;;
15256;SDS011;7731;50.720;6.912;2022-10-16T15:46:49;1.20;;;1.10;;
15256;SDS011;7731;50.720;6.912;2022-10-16T15:49:19;2.15;;;1.50;;
15256;SDS011;7731;50.720;6.912;2022-10-16T15:51:49;1.88;;;1.60;;
15256;SDS011;7731;50.720;6.912;2022-10-16T15:54:21;2.47;;;2.28;;
15256;SDS011;7731;50.720;6.912;2022-10-16T15:56:53;1.23;;;1.10;;
15256;SDS011;7731;50.720;6.912;2022-10-16T15:59:24;1.38;;;1.10;;
15256;SDS011;7731;50.720;6.912;2022-10-16T16:01:54;0.80;;;0.77;;
15256;SDS011;7731;50.720;6.912;2022-10-16T16:04:30;1.27;;;0.80;;
15256;SDS011;7731;50.720;6.912;2022-10-16T16:07:09;1.00;;;0.90;;
15256;SDS011;7731;50.720;6.912;2022-10-16T16:09:40;2.35;;;1.58;;
15256;SDS011;7731;50.720;6.912;2022-10-16T16:12:14;2.63;;;1.52;;
15256;SDS011;7731;50.720;6.912;2022-10-16T16:14:47;1.25;;;1.10;;
15256;SDS011;7731;50.720;6.912;2022-10-16T16:17:17;1.00;;;0.90;;
15256;SDS011;7731;50.720;6.912;2022-10-16T16:19:50;1.65;;;0.90;;